Sylvan Dell, Pennsylvania
Current Conditions -  °F | °C
As of 10:34 AM on Wednesday 26 Nov 2014 (Local Time) from KIPT Reporting Station
Heavy Snow Heavy Snow  
Wind Chill: 33°   Ceiling: 800
Heat Index: 33°   Visibility: 0.25mi
Dew Point: 31°   Wind: 0mph
Humidity: 92%   Direction: NA
Pressure: 30.15"   Gusts: NA
Location:  41.2285°N, 77.014°W
Report Text: KIPT 261534Z 00000KT 1/4SM +SN FG VV008 01/M01 A3015 RMK AO2 P0006 T00061006
Loading
Personal Weather Stations






























Interactive Weather Map New forecast layout! Learn more

10-Day Weather Forecast

Advertisements
Track Severe Weather on mobile